ADDS METAR Data INFO
IDs: Format: Raw Decoded Include TAF

Data at: 2158 UTC 24 Feb 2018

PABV 242156Z AUTO 29003KT 7SM -SN BKN030 OVC035 M04/M07 A2965 RMK AO2 SLP049 P0000 T10391067 FZRANO $
PABV 242105Z AUTO 00000KT 3SM -SN SCT022 OVC030 M05/M08 A2965 RMK AO2 P0000 FZRANO $
PABV 242056Z AUTO 25003KT 2SM -SN BKN022 OVC030 M05/M08 A2965 RMK AO2 SLP049 P0000 60000 T10501083 50006 FZRANO $
PABV 242048Z AUTO 24003KT 2 1/2SM -SN BKN020 OVC027 M06/M08 A2965 RMK AO2 VIS 1 3/4V3 P0000 FZRANO $
PABV 242038Z AUTO 24004KT 3SM -SN BKN020 OVC029 M06/M09 A2965 RMK AO2 P0000 FZRANO $
PABV 242030Z AUTO 25004KT 2 1/2SM -SN OVC020 M06/M09 A2965 RMK AO2 VIS 2V5 P0000 FZRANO $
PABV 242017Z AUTO 23004KT 1 3/4SM -SN BKN022 OVC030 M06/M09 A2965 RMK AO2 VIS 1 1/4V2 1/2 P0000 FZRANO $
PABV 242007Z AUTO 22004KT 2SM -SN BR BKN022 OVC030 M07/M09 A2965 RMK AO2 P0000 FZRANO $
PABV 241956Z AUTO 22004KT 3SM -SN BR SCT018 BKN027 OVC032 M07/M09 A2965 RMK AO2 SLP050 P0000 T10671089 FZRANO $
PABV 241916Z AUTO 22005KT 3SM -SN BR OVC022 M07/M09 A2965 RMK AO2 P0000 FZRANO $
PABV 241856Z AUTO 23006KT 1 1/4SM -SN BR OVC026 M07/M09 A2964 RMK AO2 SLP047 P0000 T10721089 FZRANO $
PABV 241756Z AUTO 23005KT 1 1/2SM -SN BR BKN025 OVC031 M08/M09 A2963 RMK AO2 SLP043 P0000 60003 T10781094 11072 21078 51005 FZRANO $
PABV 241754Z AUTO 23005KT 1 1/2SM -SN BR OVC028 M08/M09 A2963 RMK AO2 VIS 1 1/4V2 P0000 FZRANO $
PABV 241740Z AUTO 23005KT 2 1/2SM -SN BR SCT020 OVC029 M08/M09 A2963 RMK AO2 VIS 2V4 P0000 FZRANO $
PABV 241656Z AUTO 22005KT 4SM -SN BR OVC016 M08/M09 A2962 RMK AO2 SLP040 P0000 T10781094 FZRANO $
PABV 241644Z AUTO 22005KT 4SM -SN BR OVC016 M08/M09 A2962 RMK AO2 P0000 FZRANO $
PABV 241612Z AUTO 23004KT 2SM -SN BR OVC016 M08/M09 A2962 RMK AO2 P0000 FZRANO $
PABV 241556Z AUTO 23005KT 2 1/2SM -SN BR OVC014 M08/M09 A2962 RMK AO2 VIS 2V3 SLP039 P0000 T10781089 FZRANO $
PABV 241552Z AUTO 22004KT 2 1/2SM -SN BR OVC012 M08/M09 A2962 RMK AO2 P0000 FZRANO $
PABV 241512Z AUTO 24004KT 1 1/2SM -SN BR OVC012 M07/M09 A2961 RMK AO2 P0000 FZRANO $
PABV 241456Z AUTO 25003KT 1SM -SN BR BKN012 OVC021 M07/M09 A2961 RMK AO2 SLP036 P0001 60003 T10721089 55010 FZRANO $
PABV 241452Z AUTO 26003KT 1SM -SN BR BKN012 OVC019 M07/M09 A2961 RMK AO2 P0001 FZRANO $
PABV 241441Z AUTO 24003KT 1 1/2SM -SN BR OVC019 M08/M09 A2961 RMK AO2 P0001 FZRANO $
PABV 241424Z AUTO 20004KT 2 1/2SM -SN BR OVC017 M08/M09 A2961 RMK AO2 P0000 FZRANO $
PABV 241356Z AUTO 00000KT 1 1/2SM -SN BR OVC024 M08/M09 A2961 RMK AO2 SLP037 P0001 T10781094 FZRANO $
PABV 241343Z AUTO 00000KT 2 1/2SM -SN BR BKN024 OVC035 M08/M09 A2962 RMK AO2 P0001 FZRANO $
PABV 241321Z AUTO 00000KT 1 3/4SM -SN BR BKN020 OVC035 M08/M09 A2963 RMK AO2 P0001 FZRANO $
PABV 241308Z AUTO 00000KT 2 1/2SM -SN BR SCT012 OVC018 M08/M09 A2964 RMK AO2 VIS 1 1/2V5 P0001 FZRANO $
PABV 241256Z AUTO 00000KT 4SM -SN BR BKN014 OVC018 M08/M09 A2964 RMK AO2 SLP046 P0001 T10781094 FZRANO $
PABV 241247Z AUTO 00000KT 2SM -SN BR OVC014 M08/M09 A2965 RMK AO2 VIS 1 1/2V3 P0001 FZRANO $
PABV 241217Z AUTO 00000KT 1 1/4SM -SN BR OVC012 M08/M09 A2966 RMK AO2 P0000 FZRANO $
PABV 241156Z AUTO 03005KT 1SM -SN BR OVC012 M08/M09 A2967 RMK AO2 SLP054 P0000 60000 T10781094 11072 21083 56024 FZRANO $
PABV 241137Z AUTO 02003KT 1SM -SN BR OVC012 M07/M08 A2968 RMK AO2 P0000 FZRANO $
PABV 241114Z AUTO 00000KT 3/4SM -SN BR BKN014 OVC023 M07/M09 A2969 RMK AO2 P0000 FZRANO $
PABV 241107Z AUTO 00000KT 1 1/2SM -SN SCT014 OVC023 M07/M11 A2969 RMK AO2 P0000 FZRANO $
PABV 241056Z AUTO 00000KT 2SM -SN BKN023 OVC028 M07/M10 A2970 RMK AO2 SLP064 P0000 T10721100 FZRANO $
PABV 241053Z AUTO 00000KT 2 1/2SM -SN BKN023 OVC028 M07/M10 A2970 RMK AO2 P0000 FZRANO $
PABV 241043Z AUTO 00000KT 3SM -SN OVC028 M07/M11 A2970 RMK AO2 P0000 FZRANO $
PABV 240956Z AUTO 00000KT 9SM -SN OVC041 M08/M11 A2974 RMK AO2 SNB42 SLP078 P0000 T10781111 FZRANO $
PABV 240856Z AUTO 12003KT 10SM BKN039 OVC070 M08/M11 A2978 RMK AO2 PRESFR SLP092 T10781111 410331111 56036 FZRANO $
PABV 240756Z AUTO 00000KT 10SM OVC075 M08/M12 A2981 RMK AO2 SLP103 T10831117 FZRANO $
PABV 240656Z AUTO 00000KT 10SM OVC100 M08/M12 A2984 RMK AO2 SLP112 T10781122 FZRANO $
PABV 240556Z AUTO 05005KT 10SM BKN120 M07/M12 A2988 RMK AO2 PRESFR SLP128 60000 T10721122 11039 21083 58051 FZRANO $
PABV 240456Z AUTO 00000KT 10SM FEW120 M08/M12 A2994 RMK AO2 SLP149 T10781117 FZRANO $
PABV 240356Z AUTO 05008KT 10SM CLR M08/M12 A2998 RMK AO2 SLP161 T10781117 FZRANO $
PABV 240256Z AUTO 00000KT 10SM CLR M07/M12 A3003 RMK AO2 SLP178 60000 T10671122 58029 FZRANO $
PABV 240156Z AUTO 05005KT 10SM CLR M06/M13 A3007 RMK AO2 SNB16E27 SLP190 P0000 T10561128 FZRANO $
PABV 240056Z AUTO 05006KT 10SM CLR M05/M12 A3010 RMK AO2 SLP200 T10501122 FZRANO $
PABV 232356Z AUTO 04008KT 10SM CLR M04/M12 A3012 RMK AO2 SLP207 T10391122 11033 21094 58035 FZRANO $
PABV 232256Z AUTO 05009KT 10SM CLR M04/M12 A3017 RMK AO2 SLP225 T10441117 FZRANO $
PABV 232156Z AUTO 05007KT 10SM CLR M06/M12 A3021 RMK AO2 SLP238 T10561122 FZRANO $
PABV 232056Z AUTO VRB03KT 10SM CLR M06/M12 A3022 RMK AO2 SLP242 T10611122 50001 FZRANO $
PABV 231956Z AUTO 00000KT 10SM CLR M08/M13 A3022 RMK AO2 SLP244 T10831128 FZRANO $
PABV 231856Z AUTO VRB03KT 10SM BKN065 M08/M14 A3022 RMK AO2 SLP243 T10831139 FZRANO $
PABV 231756Z AUTO 13006KT 10SM FEW065 M09/M14 A3022 RMK AO2 SLP241 T10941139 11050 21111 53013 FZRANO $
PABV 231656Z AUTO 15005KT 10SM CLR M10/M15 A3019 RMK AO2 SLP233 T11001150 FZRANO $
PABV 231556Z AUTO VRB05KT 10SM CLR M06/M13 A3018 RMK AO2 SLP229 T10561133 FZRANO $
PABV 231456Z AUTO 30003KT 10SM CLR M06/M13 A3018 RMK AO2 SLP228 T10611128 51013 FZRANO $
PABV 231356Z AUTO 17005KT 10SM CLR M09/M13 A3017 RMK AO2 SLP225 T10941133 FZRANO $
PABV 231256Z AUTO VRB03KT 10SM CLR M07/M12 A3015 RMK AO2 SLP219 T10721122 FZRANO $
PABV 231156Z AUTO 20004KT 10SM FEW060 M06/M11 A3014 RMK AO2 SNB06E15 SLP215 P0000 60000 70037 T10611106 11028 21067 51015 FZRANO $
PABV 231056Z AUTO 21007KT 10SM CLR M06/M09 A3013 RMK AO2 SLP211 T10561089 FZRANO $
PABV 231039Z AUTO 11005KT 10SM SCT001 M07/M08 A3012 RMK AO2 FZRANO $